Time;durP1;ratioP1;P1;durP2;ratioP2;P2;SDS_P1;SDS_P2;PMS_P1;PMS_P2;Temp;Humidity;BMP_temperature;BMP_pressure;BME280_temperature;BME280_humidity;BME280_pressure;Samples;Min_cycle;Max_cycle;Signal;HPM_P1;HPM_P2
2023/05/04 00:01:52;;;;;;;15.43;9.18;;;;;;;7.84;66.16;102222.97;6073729;23;20092;-67
2023/05/04 00:04:18;;;;;;;14.70;8.93;;;;;;;7.82;67.03;102219.47;6096927;23;20076;-67
2023/05/04 00:06:43;;;;;;;15.27;9.68;;;;;;;7.83;66.21;102216.00;6073199;23;20009;-66
2023/05/04 00:09:13;;;;;;;15.15;9.60;;;;;;;7.82;66.60;102214.25;6097565;23;20016;-67
2023/05/04 00:11:39;;;;;;;13.80;9.50;;;;;;;7.84;66.54;102212.53;6073672;23;20010;-66
2023/05/04 00:14:05;;;;;;;14.85;9.23;;;;;;;7.82;66.64;102198.59;6072931;23;20040;-66
2023/05/04 00:16:30;;;;;;;12.95;9.30;;;;;;;7.85;66.00;102198.63;6097592;23;20014;-67
2023/05/04 00:18:56;;;;;;;12.88;10.10;;;;;;;7.83;66.76;102204.66;6073226;23;20101;-66
2023/05/04 00:21:24;;;;;;;16.45;9.63;;;;;;;7.83;66.06;102189.91;6071743;23;20058;-66
2023/05/04 00:23:50;;;;;;;15.15;9.27;;;;;;;7.79;66.68;102188.09;6096916;23;20014;-66
2023/05/04 00:26:15;;;;;;;12.90;9.43;;;;;;;7.79;66.01;102185.47;6078828;23;20020;-70
2023/05/04 00:28:41;;;;;;;13.35;9.30;;;;;;;7.76;66.42;102183.66;6128372;23;20113;-72
2023/05/04 00:31:06;;;;;;;18.17;10.27;;;;;;;7.77;66.35;102182.84;6078836;23;20014;-72
2023/05/04 00:33:32;;;;;;;14.57;9.43;;;;;;;7.74;67.41;102184.47;6079208;23;20096;-72
2023/05/04 00:35:57;;;;;;;15.43;9.05;;;;;;;7.71;66.86;102174.84;6126647;23;20020;-72
2023/05/04 00:38:22;;;;;;;14.57;8.95;;;;;;;7.67;66.96;102172.16;6128100;23;20006;-72
2023/05/04 00:40:48;;;;;;;12.88;8.80;;;;;;;7.61;66.87;102170.28;6102926;23;20317;-72
2023/05/04 00:43:13;;;;;;;12.93;9.40;;;;;;;7.58;67.23;102165.88;6079550;23;20005;-72
2023/05/04 00:45:40;;;;;;;13.43;9.23;;;;;;;7.56;67.78;102164.09;6127247;23;20006;-72
2023/05/04 00:48:06;;;;;;;12.30;8.57;;;;;;;7.54;66.88;102156.25;6127328;23;20009;-72
2023/05/04 00:50:32;;;;;;;14.38;9.35;;;;;;;7.52;67.89;102167.50;6078227;23;20025;-72
2023/05/04 00:53:00;;;;;;;12.80;9.07;;;;;;;7.48;67.73;102160.44;6101452;23;20017;-72
2023/05/04 00:55:26;;;;;;;14.27;9.70;;;;;;;7.43;68.35;102152.53;6124718;23;20009;-72
2023/05/04 00:57:52;;;;;;;12.68;9.40;;;;;;;7.40;68.38;102158.53;6075407;23;20092;-72
2023/05/04 01:00:18;;;;;;;15.77;10.15;;;;;;;7.36;68.61;102159.31;6122611;23;20028;-72
2023/05/04 01:02:43;;;;;;;15.80;9.55;;;;;;;7.36;68.47;102151.50;6099357;23;20013;-72
2023/05/04 01:05:11;;;;;;;14.85;9.70;;;;;;;7.34;69.14;102147.09;6099897;23;20112;-72
2023/05/04 01:08:02;;;;;;;12.77;10.50;;;;;;;7.35;68.40;102148.84;6126205;23;20316;-72
2023/05/04 01:10:40;;;;;;;16.08;9.93;;;;;;;7.31;68.43;102142.66;6127083;23;20424;-72
2023/05/04 01:13:10;;;;;;;17.75;9.65;;;;;;;7.24;69.33;102144.28;6153384;23;20023;-72
2023/05/04 01:15:35;;;;;;;17.33;9.85;;;;;;;7.21;69.18;102146.81;6125897;23;20017;-72
2023/05/04 01:18:01;;;;;;;12.85;8.98;;;;;;;7.20;69.57;102146.78;6154153;23;20020;-72
2023/05/04 01:20:30;;;;;;;12.18;9.35;;;;;;;7.16;69.40;102143.22;6099779;23;20491;-72
2023/05/04 01:22:55;;;;;;;14.43;9.55;;;;;;;7.15;69.25;102130.16;6152285;23;20009;-71
2023/05/04 01:25:28;;;;;;;15.05;9.55;;;;;;;7.11;69.81;102134.38;6124338;23;20345;-72
2023/05/04 01:28:18;;;;;;;13.57;8.80;;;;;;;7.10;70.09;102135.25;6125531;23;20010;-72
2023/05/04 01:30:48;;;;;;;15.90;9.77;;;;;;;7.07;70.03;102128.25;6123435;23;20040;-72
2023/05/04 01:33:15;;;;;;;20.27;9.82;;;;;;;7.02;70.15;102134.19;6125386;23;20105;-72
2023/05/04 01:35:41;;;;;;;14.77;9.30;;;;;;;6.99;70.63;102135.00;6125135;23;20013;-72
2023/05/04 01:38:07;;;;;;;15.05;9.82;;;;;;;6.96;70.36;102123.63;6103567;23;20045;-72
2023/05/04 01:40:32;;;;;;;16.52;9.57;;;;;;;6.94;70.76;102126.19;6104592;23;20096;-72
2023/05/04 01:42:57;;;;;;;13.63;9.70;;;;;;;6.92;71.04;102130.47;6105007;23;20494;-72
2023/05/04 01:45:23;;;;;;;12.88;8.70;;;;;;;6.90;70.80;102130.44;6077700;23;20024;-72
2023/05/04 01:47:49;;;;;;;16.98;9.25;;;;;;;6.87;71.49;102132.97;6125274;23;20013;-72
2023/05/04 01:50:14;;;;;;;15.10;9.68;;;;;;;6.85;71.51;102126.88;6124049;23;20009;-72
2023/05/04 01:52:40;;;;;;;16.33;9.50;;;;;;;6.80;71.80;102133.66;6101967;23;20365;-72
2023/05/04 01:55:06;;;;;;;13.48;9.05;;;;;;;6.78;71.52;102124.94;6079739;23;20021;-72
2023/05/04 01:57:31;;;;;;;16.83;9.30;;;;;;;6.77;71.19;102120.56;6103047;23;20024;-72
2023/05/04 01:59:57;;;;;;;12.63;9.50;;;;;;;6.76;71.35;102131.84;6125728;23;20292;-72
2023/05/04 02:02:22;;;;;;;14.95;10.52;;;;;;;6.73;71.65;102129.16;6078874;23;20072;-72
2023/05/04 02:04:48;;;;;;;13.27;9.50;;;;;;;6.71;71.30;102123.00;6126757;23;20020;-72
2023/05/04 02:07:13;;;;;;;14.43;9.57;;;;;;;6.69;72.10;102125.56;6075688;23;20031;-72
2023/05/04 02:09:39;;;;;;;12.23;8.52;;;;;;;6.68;72.38;102125.53;6080641;23;20010;-72
2023/05/04 02:12:04;;;;;;;15.32;9.75;;;;;;;6.64;71.81;102132.41;6101014;23;20021;-72
2023/05/04 02:14:30;;;;;;;14.27;10.40;;;;;;;6.62;72.39;102122.78;6125741;23;20113;-72
2023/05/04 02:16:55;;;;;;;15.25;9.75;;;;;;;6.58;72.14;102127.06;6128215;23;20082;-71
2023/05/04 02:19:21;;;;;;;12.05;10.10;;;;;;;6.56;72.68;102119.19;6102882;23;20436;-72
2023/05/04 02:21:47;;;;;;;13.00;9.20;;;;;;;6.55;72.09;102126.94;6079945;23;20079;-72
2023/05/04 02:24:12;;;;;;;18.35;10.20;;;;;;;6.54;72.21;102127.81;6124345;23;20107;-72
2023/05/04 02:26:38;;;;;;;16.23;10.18;;;;;;;6.52;73.07;102117.38;6078725;23;20037;-72
2023/05/04 02:29:04;;;;;;;15.35;10.18;;;;;;;6.51;73.63;102117.31;6127261;23;20013;-72
2023/05/04 02:31:31;;;;;;;14.15;8.75;;;;;;;6.49;73.09;102116.38;6103606;23;20014;-72
2023/05/04 02:33:56;;;;;;;14.90;9.70;;;;;;;6.46;72.86;102117.19;6103434;23;20017;-72
2023/05/04 02:36:22;;;;;;;14.43;9.73;;;;;;;6.47;73.09;102118.09;6127826;23;20016;-72
2023/05/04 02:38:47;;;;;;;15.32;9.73;;;;;;;6.41;73.87;102111.00;6103615;23;20010;-72
2023/05/04 02:41:12;;;;;;;15.15;10.27;;;;;;;6.38;73.66;102110.91;6079323;23;20013;-72
2023/05/04 02:43:38;;;;;;;15.57;9.50;;;;;;;6.35;73.82;102097.78;6104157;23;20016;-72
2023/05/04 02:46:03;;;;;;;13.27;9.65;;;;;;;6.35;73.54;102101.31;6102670;23;20020;-72
2023/05/04 02:48:29;;;;;;;13.50;9.48;;;;;;;6.27;73.98;102100.22;6104199;23;20032;-72
2023/05/04 02:50:55;;;;;;;14.25;9.63;;;;;;;6.26;74.36;102101.03;6123928;23;20071;-72
2023/05/04 02:53:21;;;;;;;14.43;10.07;;;;;;;6.26;74.43;102100.19;6124386;23;20003;-72
2023/05/04 02:55:46;;;;;;;14.38;10.07;;;;;;;6.22;74.19;102102.69;6079970;23;20013;-72
2023/05/04 02:58:11;;;;;;;15.40;10.63;;;;;;;6.18;74.08;102103.47;6080012;23;20014;-72
2023/05/04 03:00:37;;;;;;;19.25;10.38;;;;;;;6.16;74.30;102104.25;6101595;23;20009;-72
2023/05/04 03:03:08;;;;;;;12.77;9.85;;;;;;;6.14;74.47;102099.00;6101688;23;20010;-72
2023/05/04 03:05:33;;;;;;;15.13;9.80;;;;;;;6.07;74.95;102094.47;6102719;23;20020;-72
2023/05/04 03:07:59;;;;;;;14.95;9.80;;;;;;;6.08;74.50;102104.06;6078586;23;20013;-72
2023/05/04 03:10:25;;;;;;;16.77;10.50;;;;;;;6.03;74.83;102105.63;6078212;23;20104;-72
2023/05/04 03:12:50;;;;;;;18.60;11.65;;;;;;;6.00;75.08;102096.03;6102811;23;20093;-72
2023/05/04 03:15:16;;;;;;;15.18;10.15;;;;;;;5.96;75.43;102101.06;6075527;23;20428;-72
2023/05/04 03:17:42;;;;;;;13.02;10.20;;;;;;;5.95;75.67;102094.09;6075261;23;20397;-72
2023/05/04 03:20:08;;;;;;;16.27;10.20;;;;;;;5.93;75.61;102101.00;6075215;23;20080;-72
2023/05/04 03:22:34;;;;;;;15.70;10.43;;;;;;;5.92;75.61;102091.41;6100914;23;20009;-72
2023/05/04 03:25:00;;;;;;;16.83;9.65;;;;;;;5.89;75.64;102098.31;6123825;23;20064;-72
2023/05/04 03:27:25;;;;;;;16.05;10.40;;;;;;;5.87;75.97;102094.78;6126327;23;20091;-72
2023/05/04 03:29:51;;;;;;;15.52;10.65;;;;;;;5.84;76.12;102092.09;6099880;23;20006;-72
2023/05/04 03:32:16;;;;;;;14.63;10.25;;;;;;;5.81;75.86;102086.81;6102128;23;20013;-72
2023/05/04 03:34:44;;;;;;;15.45;10.00;;;;;;;5.82;76.11;102091.19;6102297;23;20013;-72
2023/05/04 03:37:10;;;;;;;18.27;10.60;;;;;;;5.79;76.10;102085.91;6101938;23;20013;-71
2023/05/04 03:39:35;;;;;;;17.10;10.32;;;;;;;5.77;76.88;102082.34;6077330;23;20017;-71
2023/05/04 03:42:01;;;;;;;15.60;10.20;;;;;;;5.75;76.71;102083.13;6102216;23;20052;-72
2023/05/04 03:44:26;;;;;;;16.42;9.95;;;;;;;5.72;76.83;102070.94;6078086;23;20013;-72
2023/05/04 03:46:52;;;;;;;14.18;10.15;;;;;;;5.72;77.14;102066.63;6079398;23;20009;-72
2023/05/04 03:49:17;;;;;;;13.68;10.30;;;;;;;5.72;76.79;102063.16;6101282;23;20363;-72
2023/05/04 03:51:43;;;;;;;14.57;10.13;;;;;;;5.70;77.13;102064.81;6078083;23;20022;-72
2023/05/04 03:54:08;;;;;;;16.25;11.02;;;;;;;5.67;77.43;102054.31;6102342;23;20010;-72
2023/05/04 03:56:34;;;;;;;16.60;10.48;;;;;;;5.67;77.29;102069.94;6125987;23;20016;-71
2023/05/04 03:59:00;;;;;;;19.80;10.55;;;;;;;5.65;77.74;102066.41;6100325;23;20028;-72
2023/05/04 04:01:25;;;;;;;15.77;11.05;;;;;;;5.67;78.14;102068.19;6102098;23;20010;-72
2023/05/04 04:03:51;;;;;;;16.38;9.90;;;;;;;5.65;77.67;102064.69;6100546;23;20068;-72
2023/05/04 04:06:16;;;;;;;17.33;11.02;;;;;;;5.68;77.74;102063.91;6099742;23;20017;-72
2023/05/04 04:08:41;;;;;;;16.25;10.95;;;;;;;5.66;78.26;102073.38;6101782;23;20032;-72
2023/05/04 04:11:07;;;;;;;14.90;10.73;;;;;;;5.64;77.63;102062.06;6078925;23;20451;-71
2023/05/04 04:13:32;;;;;;;14.77;10.73;;;;;;;5.63;77.64;102058.56;6127527;23;20005;-71
2023/05/04 04:15:58;;;;;;;15.13;10.93;;;;;;;5.64;78.02;102064.66;6126434;23;20013;-72
2023/05/04 04:18:23;;;;;;;16.83;11.18;;;;;;;5.62;78.41;102067.22;6103398;23;20013;-72
2023/05/04 04:20:49;;;;;;;19.05;11.07;;;;;;;5.63;78.57;102073.28;6097697;23;20424;-72
2023/05/04 04:23:17;;;;;;;14.38;10.73;;;;;;;5.62;78.56;102067.22;6153541;23;20025;-72
2023/05/04 04:25:44;;;;;;;20.20;11.38;;;;;;;5.62;78.95;102066.34;6101267;23;20012;-72
2023/05/04 04:28:10;;;;;;;14.82;10.90;;;;;;;5.63;78.33;102062.88;6079583;23;20013;-72
2023/05/04 04:30:36;;;;;;;18.00;10.93;;;;;;;5.61;79.22;102060.22;6076980;23;20468;-72
2023/05/04 04:33:02;;;;;;;14.15;10.75;;;;;;;5.63;79.01;102060.28;6078637;23;20040;-72
2023/05/04 04:35:27;;;;;;;16.35;10.60;;;;;;;5.62;79.45;102053.34;6077093;23;20833;-72
2023/05/04 04:37:53;;;;;;;14.52;10.45;;;;;;;5.66;79.00;102048.25;6077228;23;20009;-72
2023/05/04 04:40:18;;;;;;;15.25;10.30;;;;;;;5.67;78.90;102044.78;6103239;23;20025;-72
2023/05/04 04:42:44;;;;;;;15.00;10.57;;;;;;;5.72;78.94;102052.75;6101934;23;20013;-72
2023/05/04 04:45:09;;;;;;;17.33;10.57;;;;;;;5.81;78.41;102050.38;6103012;23;20387;-72
2023/05/04 04:47:35;;;;;;;17.15;11.35;;;;;;;5.89;78.64;102048.88;6101488;23;20013;-71
2023/05/04 04:50:04;;;;;;;14.32;10.27;;;;;;;5.96;78.52;102046.44;6103013;23;20020;-72
2023/05/04 04:52:31;;;;;;;16.10;10.18;;;;;;;6.06;78.07;102049.38;6150059;23;20005;-72
2023/05/04 04:54:57;;;;;;;15.85;10.85;;;;;;;6.14;78.10;102041.75;6101642;23;20014;-72
2023/05/04 04:57:22;;;;;;;16.85;10.98;;;;;;;6.27;77.56;102055.09;6102508;23;20017;-73
2023/05/04 04:59:47;;;;;;;16.38;10.68;;;;;;;6.32;77.76;102050.88;6075869;23;20006;-71
2023/05/04 05:02:13;;;;;;;17.52;10.35;;;;;;;6.37;77.50;102044.06;6100652;23;20037;-72
2023/05/04 05:04:40;;;;;;;17.90;10.70;;;;;;;6.42;76.77;102045.03;6100463;23;20013;-72
2023/05/04 05:07:07;;;;;;;13.70;9.95;;;;;;;6.43;76.96;102049.41;6099304;23;20006;-72
2023/05/04 05:09:34;;;;;;;14.77;10.48;;;;;;;6.49;77.20;102052.16;6102710;23;20009;-72
2023/05/04 05:11:59;;;;;;;16.77;10.88;;;;;;;6.57;76.41;102052.38;6101643;23;20017;-72
2023/05/04 05:14:26;;;;;;;14.50;9.18;;;;;;;6.63;75.67;102055.09;6104074;23;20016;-72
2023/05/04 05:16:52;;;;;;;15.23;9.85;;;;;;;6.71;75.93;102060.47;6101194;23;20009;-72
2023/05/04 05:19:17;;;;;;;13.63;10.13;;;;;;;6.79;75.53;102058.94;6104308;23;20009;-72
2023/05/04 05:21:43;;;;;;;13.82;9.27;;;;;;;6.86;75.75;102060.84;6101557;23;20018;-72
2023/05/04 05:24:09;;;;;;;15.32;9.20;;;;;;;6.93;75.08;102061.88;6101090;23;20081;-72
2023/05/04 05:26:34;;;;;;;17.45;9.40;;;;;;;7.01;75.54;102059.44;6079260;23;20091;-72
2023/05/04 05:29:00;;;;;;;14.75;10.13;;;;;;;7.04;74.41;102052.59;6077283;23;20020;-72
2023/05/04 05:31:26;;;;;;;21.73;11.45;;;;;;;7.13;75.23;102059.72;6080010;23;20212;-72
2023/05/04 05:33:51;;;;;;;13.90;10.30;;;;;;;7.18;75.07;102059.81;6080761;23;20072;-72
2023/05/04 05:36:17;;;;;;;16.00;9.77;;;;;;;7.24;74.81;102060.84;6078843;23;20010;-72
2023/05/04 05:38:43;;;;;;;16.63;10.27;;;;;;;7.32;75.71;102055.78;6080133;23;20072;-72
2023/05/04 05:41:08;;;;;;;13.35;9.48;;;;;;;7.45;74.54;102056.91;6079705;23;20036;-72
2023/05/04 05:43:35;;;;;;;16.60;9.90;;;;;;;7.55;74.06;102053.66;6104953;23;20088;-72
2023/05/04 05:46:04;;;;;;;16.95;9.75;;;;;;;7.65;74.87;102057.31;6098920;23;20017;-72
2023/05/04 05:48:29;;;;;;;15.00;9.52;;;;;;;7.73;73.15;102041.81;6126933;23;20712;-72
2023/05/04 05:50:55;;;;;;;13.45;8.88;;;;;;;7.83;73.12;102053.31;6103000;23;20037;-72
2023/05/04 05:53:20;;;;;;;19.50;9.95;;;;;;;7.94;72.29;102049.16;6104192;23;20009;-72
2023/05/04 05:55:46;;;;;;;14.63;9.52;;;;;;;8.06;71.53;102051.13;6104547;23;20044;-72
2023/05/04 05:58:12;;;;;;;12.80;8.75;;;;;;;8.16;72.80;102053.06;6103779;23;20048;-71
2023/05/04 06:00:40;;;;;;;13.27;8.95;;;;;;;8.26;71.28;102048.84;6103141;23;20010;-72
2023/05/04 06:03:06;;;;;;;14.13;9.50;;;;;;;8.42;72.74;102047.38;6128682;23;20010;-71
2023/05/04 06:05:33;;;;;;;16.02;8.88;;;;;;;8.49;71.52;102042.34;6078667;23;20348;-72
2023/05/04 06:07:58;;;;;;;16.13;9.43;;;;;;;8.63;70.84;102046.88;6105201;23;20020;-72
2023/05/04 06:10:24;;;;;;;13.55;8.60;;;;;;;8.74;71.17;102047.06;6102530;23;20010;-72
2023/05/04 06:12:49;;;;;;;12.15;8.20;;;;;;;8.84;70.38;102039.38;6126429;23;20005;-72
2023/05/04 06:15:15;;;;;;;18.27;9.27;;;;;;;9.01;71.07;102034.38;6127952;23;20005;-72
2023/05/04 06:17:41;;;;;;;15.65;9.20;;;;;;;9.17;70.13;102030.25;6080004;23;20108;-72
2023/05/04 06:20:07;;;;;;;15.48;9.02;;;;;;;9.29;69.66;102034.75;6102330;23;20428;-72
2023/05/04 06:22:32;;;;;;;12.30;8.68;;;;;;;9.39;68.83;102029.66;6102733;23;20009;-72
2023/05/04 06:24:57;;;;;;;13.55;9.38;;;;;;;9.53;69.45;102025.44;6078810;23;20116;-72
2023/05/04 06:27:24;;;;;;;11.52;9.00;;;;;;;9.58;70.05;102015.03;6127388;23;20014;-72
2023/05/04 06:29:50;;;;;;;11.85;7.97;;;;;;;9.74;66.65;102016.06;6102344;23;20084;-72
2023/05/04 06:32:16;;;;;;;14.90;8.30;;;;;;;9.77;67.01;102009.16;6101950;23;20005;-72
2023/05/04 06:34:41;;;;;;;13.63;7.65;;;;;;;9.85;65.61;102014.44;6127083;23;20032;-72
2023/05/04 06:37:07;;;;;;;13.52;8.35;;;;;;;10.00;66.12;102011.13;6078153;23;20057;-72
2023/05/04 06:39:32;;;;;;;12.10;7.88;;;;;;;10.15;66.15;102005.13;6126892;23;20005;-72
2023/05/04 06:41:58;;;;;;;12.27;7.65;;;;;;;10.27;66.05;102009.59;6077433;23;20508;-72
2023/05/04 06:44:24;;;;;;;13.60;8.07;;;;;;;10.33;64.16;102004.38;6077685;23;20013;-72
2023/05/04 06:46:50;;;;;;;14.48;8.60;;;;;;;10.46;64.89;102013.25;6079089;23;20011;-72
2023/05/04 06:49:18;;;;;;;12.48;7.53;;;;;;;10.53;64.38;102004.56;6124992;23;20014;-72
2023/05/04 06:51:43;;;;;;;13.10;8.70;;;;;;;10.74;67.02;102004.72;6123369;23;20044;-72
2023/05/04 06:54:09;;;;;;;11.80;8.00;;;;;;;10.85;64.78;102004.78;6102627;23;20289;-72
2023/05/04 06:56:34;;;;;;;10.55;7.15;;;;;;;10.95;63.89;102005.72;6079043;23;20071;-72
2023/05/04 06:59:00;;;;;;;13.63;7.35;;;;;;;11.07;63.45;101999.66;6075391;23;20088;-72
2023/05/04 07:01:26;;;;;;;12.43;7.68;;;;;;;11.13;63.93;101991.81;6095708;23;20021;-72
2023/05/04 07:03:51;;;;;;;12.18;7.20;;;;;;;11.33;65.09;102001.50;6098984;23;20017;-72
2023/05/04 07:06:17;;;;;;;10.73;6.80;;;;;;;11.32;62.44;101995.41;6102397;23;20020;-72
2023/05/04 07:08:42;;;;;;;13.27;8.73;;;;;;;11.48;60.70;101991.06;6099921;23;20013;-72
2023/05/04 07:11:09;;;;;;;11.05;7.22;;;;;;;11.67;61.96;101996.38;6098010;23;20009;-72
2023/05/04 07:13:34;;;;;;;11.82;6.45;;;;;;;11.84;60.31;101993.75;6101863;23;20014;-72
2023/05/04 07:15:59;;;;;;;9.98;6.85;;;;;;;11.96;60.83;101989.44;6075613;23;20427;-72
2023/05/04 07:18:25;;;;;;;15.68;7.28;;;;;;;12.04;60.20;101985.94;6099362;23;20068;-72
2023/05/04 07:20:50;;;;;;;13.35;6.30;;;;;;;12.15;59.07;101980.69;6073496;23;20072;-72
2023/05/04 07:23:16;;;;;;;13.05;7.32;;;;;;;12.29;60.39;101976.31;6074864;23;20495;-72
2023/05/04 07:25:42;;;;;;;11.13;6.75;;;;;;;12.35;58.60;101971.03;6100545;23;20092;-72
2023/05/04 07:28:07;;;;;;;16.02;7.03;;;;;;;12.51;59.25;101964.00;6127568;23;20001;-72
2023/05/04 07:30:33;;;;;;;10.82;6.60;;;;;;;12.80;60.22;101966.56;6076234;23;20108;-72
2023/05/04 07:32:58;;;;;;;10.48;6.72;;;;;;;13.09;58.35;101973.47;6079294;23;20009;-72
2023/05/04 07:35:24;;;;;;;10.55;6.47;;;;;;;13.19;58.03;101963.78;6077937;23;20016;-72
2023/05/04 07:37:49;;;;;;;9.73;6.60;;;;;;;13.35;57.96;101962.00;6152204;23;20057;-72
2023/05/04 07:40:15;;;;;;;13.68;6.95;;;;;;;13.26;56.26;101964.63;6076569;23;20488;-72
2023/05/04 07:42:41;;;;;;;10.13;6.53;;;;;;;13.38;56.64;101961.97;6078187;23;20017;-72
2023/05/04 07:45:07;;;;;;;16.30;7.38;;;;;;;13.57;57.95;101965.38;6100833;23;20024;-72
2023/05/04 07:47:33;;;;;;;11.23;6.28;;;;;;;13.53;54.39;101950.47;6100779;23;20045;-72
2023/05/04 07:49:59;;;;;;;12.43;7.18;;;;;;;13.74;55.65;101949.44;6101249;23;20124;-72
2023/05/04 07:52:24;;;;;;;9.45;6.25;;;;;;;13.82;56.55;101957.28;6101878;23;20095;-72
2023/05/04 07:54:53;;;;;;;10.88;6.60;;;;;;;13.90;54.40;101955.47;6101220;23;20137;-72
2023/05/04 07:57:19;;;;;;;12.25;6.35;;;;;;;14.06;53.71;101958.84;6100921;23;20340;-72
2023/05/04 07:59:45;;;;;;;10.23;6.13;;;;;;;14.14;55.97;101956.19;6102486;23;20407;-72
2023/05/04 08:02:11;;;;;;;12.80;6.43;;;;;;;14.37;54.01;101961.22;6127481;23;20006;-72
2023/05/04 08:04:37;;;;;;;11.43;5.70;;;;;;;14.60;53.69;101946.94;6101861;23;20360;-72
2023/05/04 08:07:02;;;;;;;11.18;6.80;;;;;;;14.81;53.83;101940.56;6077057;23;20013;-72
2023/05/04 08:09:27;;;;;;;13.20;6.22;;;;;;;14.93;50.51;101950.09;6101396;23;20009;-67
2023/05/04 08:11:53;;;;;;;10.02;6.35;;;;;;;15.04;51.02;101940.28;6124233;23;20009;-67
2023/05/04 08:14:18;;;;;;;10.88;5.93;;;;;;;15.22;52.53;101944.44;6075551;23;20088;-67
2023/05/04 08:16:44;;;;;;;12.93;6.07;;;;;;;15.55;52.77;101945.72;6150064;23;20009;-70
2023/05/04 08:19:13;;;;;;;13.10;6.88;;;;;;;15.71;50.73;101937.56;6075725;23;20044;-67
2023/05/04 08:21:39;;;;;;;9.30;6.55;;;;;;;15.91;55.24;101930.22;6101840;23;20056;-67
2023/05/04 08:24:05;;;;;;;10.88;6.50;;;;;;;16.13;50.56;101937.78;6125680;23;20096;-67
2023/05/04 08:26:30;;;;;;;10.68;6.88;;;;;;;16.20;50.42;101930.63;6098580;23;20099;-68
2023/05/04 08:29:07;;;;;;;16.88;7.28;;;;;;;16.30;48.91;101939.28;6078755;23;20014;-67
2023/05/04 08:31:33;;;;;;;8.48;6.20;;;;;;;16.40;48.53;101940.84;6123007;23;20057;-67
2023/05/04 08:33:58;;;;;;;9.15;6.20;;;;;;;16.43;47.57;101931.09;6123012;23;20009;-67
2023/05/04 08:36:25;;;;;;;10.90;6.70;;;;;;;16.55;48.36;101924.69;6121657;23;20360;-67
2023/05/04 08:38:52;;;;;;;11.43;6.00;;;;;;;16.68;47.02;101924.41;6127349;23;20040;-68
2023/05/04 08:41:17;;;;;;;10.57;5.80;;;;;;;16.69;48.88;101910.28;6077352;23;20093;-67
2023/05/04 08:43:45;;;;;;;10.55;6.35;;;;;;;16.54;46.03;101920.28;6126438;23;20112;-67
2023/05/04 08:46:12;;;;;;;9.45;6.40;;;;;;;16.31;47.42;101914.56;6125852;23;20462;-67
2023/05/04 08:48:38;;;;;;;9.07;6.15;;;;;;;16.69;51.36;101910.28;6125423;23;20084;-68
2023/05/04 08:51:05;;;;;;;14.82;6.55;;;;;;;17.00;52.27;101915.00;6100351;23;20475;-67
2023/05/04 08:53:34;;;;;;;12.52;6.70;;;;;;;17.25;48.65;101910.00;6125149;23;20413;-67
2023/05/04 08:56:03;;;;;;;10.18;7.05;;;;;;;17.46;47.79;101903.34;6124771;23;20068;-68
2023/05/04 08:58:29;;;;;;;8.40;6.32;;;;;;;17.42;48.80;101907.84;6127150;23;20009;-68
2023/05/04 09:00:57;;;;;;;12.63;6.63;;;;;;;17.42;45.60;101906.97;6101497;23;20005;-67
2023/05/04 09:03:24;;;;;;;13.50;6.63;;;;;;;17.58;45.61;101891.59;6125076;23;20012;-67
2023/05/04 09:05:51;;;;;;;12.20;6.20;;;;;;;17.62;45.55;101887.94;6101436;23;20009;-68
2023/05/04 09:08:19;;;;;;;10.27;6.75;;;;;;;17.69;46.34;101878.09;6078997;23;20103;-68
2023/05/04 09:10:46;;;;;;;11.35;6.80;;;;;;;17.71;46.69;101877.09;6128363;23;19997;-68
2023/05/04 09:13:11;;;;;;;10.27;6.55;;;;;;;17.74;44.87;101877.06;6104707;23;20040;-67
2023/05/04 09:15:37;;;;;;;10.90;7.25;;;;;;;17.67;47.34;101871.03;6126009;23;20005;-72
2023/05/04 09:18:08;;;;;;;13.70;6.75;;;;;;;17.86;44.68;101862.59;6080054;23;20013;-72
2023/05/04 09:20:45;;;;;;;11.35;6.63;;;;;;;17.85;46.33;101874.13;6080686;23;20013;-72
2023/05/04 09:23:15;;;;;;;11.00;6.72;;;;;;;17.85;45.32;101863.50;6127664;23;20313;-73
2023/05/04 09:25:51;;;;;;;13.40;6.97;;;;;;;18.02;46.79;101875.50;6104320;23;20340;-73
2023/05/04 09:28:18;;;;;;;11.15;6.65;;;;;;;17.99;46.06;101872.00;6126793;23;20016;-73
2023/05/04 09:30:46;;;;;;;9.35;7.28;;;;;;;17.90;48.50;101876.63;6128741;23;20084;-73
2023/05/04 09:33:12;;;;;;;10.93;7.00;;;;;;;18.02;46.89;101860.44;6128535;23;20012;-72
2023/05/04 09:35:39;;;;;;;13.13;7.20;;;;;;;18.13;44.96;101868.09;6101956;23;20385;-72
2023/05/04 09:38:06;;;;;;;9.50;7.05;;;;;;;18.15;45.90;101866.31;6104664;23;20104;-72
2023/05/04 09:40:42;;;;;;;12.63;7.35;;;;;;;18.31;46.14;101864.09;6124094;23;20487;-72
2023/05/04 09:43:08;;;;;;;10.05;6.93;;;;;;;18.32;43.73;101853.44;6128604;23;20021;-73
2023/05/04 09:45:44;;;;;;;16.48;7.97;;;;;;;18.46;45.14;101850.41;6128449;23;20005;-73
2023/05/04 09:48:24;;;;;;;9.15;7.20;;;;;;;18.38;44.77;101840.91;6104650;23;20009;-73
2023/05/04 09:50:53;;;;;;;11.43;7.03;;;;;;;18.38;45.24;101841.78;6127779;23;20013;-73
2023/05/04 09:53:22;;;;;;;13.70;7.57;;;;;;;18.49;44.23;101831.72;6129844;23;20016;-73
2023/05/04 09:56:10;;;;;;;10.85;7.40;;;;;;;18.62;48.35;101845.50;6104771;23;20020;-73
2023/05/04 09:58:36;;;;;;;12.10;7.22;;;;;;;18.81;44.55;101835.19;6129324;23;20337;-72
2023/05/04 10:01:05;;;;;;;9.50;7.13;;;;;;;19.14;45.54;101842.22;6128875;23;20009;-73
2023/05/04 10:03:32;;;;;;;10.82;7.53;;;;;;;19.21;43.12;101827.81;6105166;23;20088;-73
2023/05/04 10:05:59;;;;;;;11.50;7.97;;;;;;;19.25;44.18;101834.75;6128178;23;20081;-72
2023/05/04 10:08:25;;;;;;;16.00;8.05;;;;;;;19.47;44.06;101824.28;6080994;23;20259;-73
2023/05/04 10:10:51;;;;;;;13.38;7.97;;;;;;;19.48;42.08;101819.81;6129073;23;20336;-73
2023/05/04 10:13:16;;;;;;;10.13;7.82;;;;;;;19.56;43.89;101815.97;6129270;23;20005;-72
2023/05/04 10:16:20;;;;;;;11.38;7.80;;;;;;;19.59;42.23;101815.03;6104207;23;20025;-73
2023/05/04 10:19:00;;;;;;;13.65;8.10;;;;;;;19.65;43.21;101821.91;6129275;23;20001;-73
2023/05/04 10:21:43;;;;;;;12.90;8.23;;;;;;;19.72;43.64;101811.03;6127908;23;20079;-72
2023/05/04 10:24:24;;;;;;;11.57;8.02;;;;;;;19.82;43.39;101800.09;6128492;23;20100;-73
2023/05/04 10:27:02;;;;;;;11.25;7.45;;;;;;;19.94;44.30;101796.13;6128823;23;20032;-73
2023/05/04 10:29:29;;;;;;;11.43;7.68;;;;;;;19.72;43.23;101789.75;6129076;23;20005;-73
2023/05/04 10:31:56;;;;;;;9.52;7.85;;;;;;;19.67;41.09;101781.06;6104743;23;20019;-73
2023/05/04 10:34:32;;;;;;;10.90;7.45;;;;;;;19.77;44.42;101781.63;6104972;23;20012;-73
2023/05/04 10:36:59;;;;;;;11.82;7.28;;;;;;;19.75;41.18;101772.81;6103921;23;20469;-73
2023/05/04 10:39:29;;;;;;;9.88;7.75;;;;;;;20.04;46.00;101785.09;6104029;23;20348;-73
2023/05/04 10:42:13;;;;;;;10.57;7.95;;;;;;;19.86;42.23;101768.00;6105053;23;20009;-73
2023/05/04 10:44:59;;;;;;;9.38;6.75;;;;;;;20.01;42.97;101771.91;6104370;23;20016;-73
2023/05/04 10:47:32;;;;;;;10.50;6.97;;;;;;;20.02;44.15;101763.00;6103813;23;20014;-74
2023/05/04 10:50:05;;;;;;;8.57;6.60;;;;;;;19.94;41.87;101745.59;6128557;23;20061;-73
2023/05/04 10:52:45;;;;;;;11.07;6.45;;;;;;;19.97;41.66;101738.38;6079952;23;20044;-73
2023/05/04 10:55:11;;;;;;;8.38;6.63;;;;;;;19.76;39.25;101731.16;6104493;23;20348;-73
2023/05/04 10:57:50;;;;;;;11.00;6.38;;;;;;;19.83;43.09;101727.38;6104038;23;20105;-73
2023/05/04 11:00:16;;;;;;;11.63;6.53;;;;;;;19.94;41.74;101717.22;6127179;23;20017;-74
2023/05/04 11:02:42;;;;;;;8.63;6.65;;;;;;;19.79;39.53;101723.94;6103419;23;20075;-74
2023/05/04 11:05:08;;;;;;;11.15;6.60;;;;;;;19.62;38.38;101705.91;6128663;23;20005;-73
2023/05/04 11:07:38;;;;;;;11.20;6.97;;;;;;;19.80;40.24;101706.22;6126917;23;20408;-73
2023/05/04 11:10:23;;;;;;;10.93;6.57;;;;;;;20.00;39.03;101702.81;6128519;23;20001;-73
2023/05/04 11:12:49;;;;;;;9.07;6.93;;;;;;;20.04;42.69;101702.63;6128107;23;20006;-73
2023/05/04 11:15:15;;;;;;;11.70;6.70;;;;;;;20.21;42.03;101690.47;6127840;23;20088;-73
2023/05/04 11:17:51;;;;;;;9.32;5.75;;;;;;;20.32;41.20;101696.25;6128704;23;20006;-73
2023/05/04 11:20:22;;;;;;;7.25;5.60;;;;;;;20.29;38.45;101690.19;6102499;23;20024;-73
2023/05/04 11:22:48;;;;;;;9.07;6.78;;;;;;;20.27;36.75;101692.91;6100241;23;20428;-73